ICE123 EDDH-BIKF
Flight info
| Callsign | ICE123 |
|---|---|
| Flight time | N/A |
| Altitude | 36000 |
| Route | ELSOB3C/05 ELSOB Y348 OMWEG DCT BADOS DCT IPSUB DCT VAXIT DCT ARTEX DCT LAMRO DCT NALAN/M077F380 DCT ALDAN DCT ASRUN ASRUN4N |
| Aircraft | B738/M-SDE2E3FGHIRWXY/LB1 |
Departure
| Time | 2026-05-06 14:30 |
|---|---|
| Airport | Hamburg Helmut Schmidt Airport (EDDH) |
Arrival
| Time | N/A |
|---|---|
| Airport | Keflavik International Airport (BIKF) |
| Time | Latitude | Longitude | Altitude | Speed | Heading |
|---|---|---|---|---|---|
| 2026-05-06 13:45 | 53.62944 | 10.00283 | 48 ft | 0 kts | 123° |
| 2026-05-06 14:03 | 53.62952 | 10.00264 | 45 ft | 4 kts | 125° |
| 2026-05-06 14:03 | 53.62968 | 10.00227 | 46 ft | 4 kts | 129° |
| 2026-05-06 14:04 | 53.62986 | 10.00194 | 47 ft | 4 kts | 139° |
| 2026-05-06 14:04 | 53.63008 | 10.00171 | 47 ft | 4 kts | 171° |
| 2026-05-06 14:04 | 53.63022 | 10.00173 | 44 ft | 0 kts | 212° |
| 2026-05-06 14:11 | 53.63008 | 10.00158 | 45 ft | 3 kts | 212° |
| 2026-05-06 14:11 | 53.62987 | 10.00136 | 47 ft | 3 kts | 212° |
| 2026-05-06 14:11 | 53.62969 | 10.00116 | 47 ft | 3 kts | 212° |
| 2026-05-06 14:12 | 53.62942 | 10.00087 | 47 ft | 9 kts | 212° |
| 2026-05-06 14:12 | 53.62876 | 10.00032 | 45 ft | 7 kts | 205° |
| 2026-05-06 14:12 | 53.62838 | 9.99995 | 46 ft | 3 kts | 212° |
| 2026-05-06 14:12 | 53.62824 | 9.99980 | 47 ft | 2 kts | 210° |
| 2026-05-06 14:13 | 53.62821 | 9.99977 | 47 ft | 0 kts | 210° |
| 2026-05-06 14:14 | 53.62811 | 9.99968 | 46 ft | 7 kts | 210° |
| 2026-05-06 14:14 | 53.62722 | 9.99882 | 42 ft | 20 kts | 209° |
| 2026-05-06 14:14 | 53.62633 | 9.99713 | 46 ft | 20 kts | 258° |
| 2026-05-06 14:14 | 53.62607 | 9.99485 | 43 ft | 20 kts | 259° |
| 2026-05-06 14:15 | 53.62579 | 9.99241 | 46 ft | 24 kts | 259° |
| 2026-05-06 14:15 | 53.62548 | 9.98965 | 43 ft | 23 kts | 259° |
| 2026-05-06 14:15 | 53.62518 | 9.98702 | 44 ft | 22 kts | 259° |
| 2026-05-06 14:15 | 53.62489 | 9.98448 | 46 ft | 22 kts | 259° |
| 2026-05-06 14:16 | 53.62463 | 9.98222 | 42 ft | 18 kts | 257° |
| 2026-05-06 14:16 | 53.62408 | 9.98046 | 46 ft | 15 kts | 230° |
| 2026-05-06 14:16 | 53.62345 | 9.97919 | 46 ft | 13 kts | 231° |
| 2026-05-06 14:16 | 53.62299 | 9.97825 | 46 ft | 0 kts | 230° |
| 2026-05-06 14:18 | 53.62279 | 9.97785 | 46 ft | 7 kts | 230° |
| 2026-05-06 14:19 | 53.62266 | 9.97759 | 46 ft | 2 kts | 230° |
| 2026-05-06 14:19 | 53.62255 | 9.97737 | 46 ft | 7 kts | 230° |
| 2026-05-06 14:19 | 53.62208 | 9.97643 | 46 ft | 12 kts | 231° |
| 2026-05-06 14:19 | 53.62179 | 9.97542 | 46 ft | 3 kts | 263° |
| 2026-05-06 14:20 | 53.62179 | 9.97541 | 46 ft | 0 kts | 263° |
| 2026-05-06 14:26 | 53.62180 | 9.97494 | 46 ft | 5 kts | 278° |
| 2026-05-06 14:26 | 53.62197 | 9.97428 | 41 ft | 7 kts | 305° |
| 2026-05-06 14:26 | 53.62204 | 9.97414 | 42 ft | 0 kts | 315° |
| 2026-05-06 14:27 | 53.62205 | 9.97413 | 43 ft | 0 kts | 315° |
| 2026-05-06 14:28 | 53.62209 | 9.97406 | 43 ft | 4 kts | 316° |
| 2026-05-06 14:28 | 53.62285 | 9.97352 | 37 ft | 17 kts | 5° |
| 2026-05-06 14:28 | 53.62335 | 9.97402 | 36 ft | 0 kts | 48° |
| 2026-05-06 14:29 | 53.62341 | 9.97413 | 38 ft | 7 kts | 48° |
| 2026-05-06 14:29 | 53.62525 | 9.97785 | 40 ft | 77 kts | 50° |
| 2026-05-06 14:29 | 53.63013 | 9.98771 | 45 ft | 139 kts | 50° |
| 2026-05-06 14:29 | 53.63693 | 10.00170 | 466 ft | 160 kts | 50° |
| 2026-05-06 14:30 | 53.64374 | 10.01602 | 1429 ft | 157 kts | 51° |
| 2026-05-06 14:30 | 53.65096 | 10.03042 | 2075 ft | 172 kts | 50° |
| 2026-05-06 14:30 | 53.65920 | 10.04690 | 2483 ft | 189 kts | 51° |
| 2026-05-06 14:30 | 53.66779 | 10.06426 | 3035 ft | 196 kts | 51° |
| 2026-05-06 14:31 | 53.67658 | 10.08218 | 3642 ft | 202 kts | 52° |
| 2026-05-06 14:31 | 53.68658 | 10.09971 | 4193 ft | 213 kts | 35° |
| 2026-05-06 14:31 | 53.70104 | 10.10601 | 4921 ft | 224 kts | 358° |
| 2026-05-06 14:31 | 53.71635 | 10.09692 | 5380 ft | 253 kts | 325° |
| 2026-05-06 14:32 | 53.72731 | 10.07203 | 5848 ft | 276 kts | 296° |
| 2026-05-06 14:32 | 53.73491 | 10.04175 | 6634 ft | 283 kts | 294° |
| 2026-05-06 14:32 | 53.74293 | 10.01122 | 7496 ft | 284 kts | 297° |
| 2026-05-06 14:32 | 53.75019 | 9.98014 | 8394 ft | 286 kts | 284° |
| 2026-05-06 14:33 | 53.74995 | 9.94675 | 9251 ft | 289 kts | 253° |
| 2026-05-06 14:33 | 53.74191 | 9.91557 | 9735 ft | 291 kts | 243° |
| 2026-05-06 14:33 | 53.73215 | 9.88540 | 9885 ft | 295 kts | 242° |
| 2026-05-06 14:33 | 53.72274 | 9.85457 | 9878 ft | 295 kts | 245° |
| 2026-05-06 14:34 | 53.71448 | 9.82311 | 9867 ft | 292 kts | 248° |
| 2026-05-06 14:34 | 53.70666 | 9.79156 | 9911 ft | 292 kts | 248° |
| 2026-05-06 14:34 | 53.69859 | 9.75891 | 10063 ft | 313 kts | 247° |
| 2026-05-06 14:34 | 53.68978 | 9.72381 | 10272 ft | 336 kts | 247° |
| 2026-05-06 14:35 | 53.68105 | 9.68713 | 10772 ft | 346 kts | 255° |
| 2026-05-06 14:35 | 53.68108 | 9.64631 | 11460 ft | 349 kts | 286° |
| 2026-05-06 14:35 | 53.69063 | 9.60922 | 12211 ft | 353 kts | 301° |
| 2026-05-06 14:35 | 53.70672 | 9.57767 | 12820 ft | 360 kts | 323° |
| 2026-05-06 14:36 | 53.72152 | 9.56392 | 13277 ft | 362 kts | 341° |
| 2026-05-06 14:36 | 53.75448 | 9.55395 | 14168 ft | 367 kts | 354° |
| 2026-05-06 14:36 | 53.78004 | 9.55020 | 14762 ft | 372 kts | 355° |
| 2026-05-06 14:36 | 53.80602 | 9.54617 | 15361 ft | 376 kts | 353° |
| 2026-05-06 14:37 | 53.83207 | 9.54014 | 15988 ft | 380 kts | 350° |
| 2026-05-06 14:37 | 53.85833 | 9.53286 | 16685 ft | 384 kts | 349° |
| 2026-05-06 14:37 | 53.88487 | 9.52560 | 17378 ft | 389 kts | 350° |
| 2026-05-06 14:37 | 53.91180 | 9.51875 | 18060 ft | 394 kts | 351° |
| 2026-05-06 14:38 | 53.93903 | 9.51229 | 18646 ft | 396 kts | 351° |
| 2026-05-06 14:38 | 53.96648 | 9.50594 | 19165 ft | 400 kts | 351° |
| 2026-05-06 14:38 | 53.99404 | 9.49842 | 19716 ft | 402 kts | 346° |
| 2026-05-06 14:38 | 54.02011 | 9.48211 | 20233 ft | 401 kts | 328° |
| 2026-05-06 14:39 | 54.04351 | 9.45654 | 20795 ft | 401 kts | 323° |
| 2026-05-06 14:39 | 54.06654 | 9.42926 | 21337 ft | 405 kts | 323° |
| 2026-05-06 14:39 | 54.09051 | 9.40364 | 21835 ft | 410 kts | 328° |
| 2026-05-06 14:39 | 54.11584 | 9.38072 | 22400 ft | 413 kts | 331° |
| 2026-05-06 14:40 | 54.14156 | 9.35856 | 22968 ft | 417 kts | 331° |
| 2026-05-06 14:40 | 54.16723 | 9.33514 | 23465 ft | 419 kts | 327° |
| 2026-05-06 14:40 | 54.19179 | 9.30828 | 23866 ft | 420 kts | 322° |
| 2026-05-06 14:40 | 54.21448 | 9.27692 | 24292 ft | 420 kts | 314° |
| 2026-05-06 14:41 | 54.23495 | 9.24119 | 24710 ft | 420 kts | 309° |
| 2026-05-06 14:41 | 54.24776 | 9.21631 | 24974 ft | 422 kts | 308° |
| 2026-05-06 14:41 | 54.27346 | 9.16535 | 25502 ft | 426 kts | 308° |
| 2026-05-06 14:41 | 54.28649 | 9.14010 | 25763 ft | 428 kts | 309° |
| 2026-05-06 14:42 | 54.30667 | 9.10241 | 26147 ft | 430 kts | 310° |
| 2026-05-06 14:42 | 54.32745 | 9.06525 | 26531 ft | 433 kts | 311° |
| 2026-05-06 14:42 | 54.34874 | 9.02854 | 26896 ft | 436 kts | 313° |
| 2026-05-06 14:42 | 54.37041 | 8.99192 | 27240 ft | 439 kts | 313° |
| 2026-05-06 14:43 | 54.39230 | 8.95517 | 27583 ft | 441 kts | 313° |
| 2026-05-06 14:43 | 54.41430 | 8.91823 | 27912 ft | 444 kts | 313° |
| 2026-05-06 14:43 | 54.43636 | 8.88102 | 28242 ft | 446 kts | 313° |
| 2026-05-06 14:43 | 54.45852 | 8.84348 | 28544 ft | 449 kts | 312° |
| 2026-05-06 14:44 | 54.48076 | 8.80564 | 28854 ft | 451 kts | 312° |
| 2026-05-06 14:44 | 54.50308 | 8.76753 | 29160 ft | 453 kts | 312° |
| 2026-05-06 14:44 | 54.52545 | 8.72925 | 29454 ft | 455 kts | 312° |
| 2026-05-06 14:45 | 54.57038 | 8.65213 | 30200 ft | 455 kts | 312° |
| 2026-05-06 14:45 | 54.59271 | 8.61374 | 30621 ft | 452 kts | 311° |
| 2026-05-06 14:45 | 54.61486 | 8.57559 | 31039 ft | 449 kts | 311° |
| 2026-05-06 14:45 | 54.63690 | 8.53757 | 31441 ft | 447 kts | 311° |
| 2026-05-06 14:46 | 54.65884 | 8.49965 | 31813 ft | 446 kts | 311° |
| 2026-05-06 14:46 | 54.68066 | 8.46185 | 32198 ft | 444 kts | 311° |
| 2026-05-06 14:46 | 54.70243 | 8.42410 | 32592 ft | 441 kts | 311° |
| 2026-05-06 14:46 | 54.72403 | 8.38658 | 32984 ft | 439 kts | 311° |
| 2026-05-06 14:47 | 54.74555 | 8.34914 | 33329 ft | 438 kts | 311° |
| 2026-05-06 14:47 | 54.76700 | 8.31174 | 33649 ft | 437 kts | 311° |
| 2026-05-06 14:47 | 54.78845 | 8.27430 | 33972 ft | 436 kts | 311° |
| 2026-05-06 14:47 | 54.80981 | 8.23694 | 34232 ft | 435 kts | 311° |
| 2026-05-06 14:48 | 54.83113 | 8.19960 | 34425 ft | 436 kts | 311° |
| 2026-05-06 14:48 | 54.85221 | 8.16261 | 34611 ft | 437 kts | 310° |
| 2026-05-06 14:48 | 54.87358 | 8.12507 | 34827 ft | 437 kts | 310° |
| 2026-05-06 14:48 | 54.89493 | 8.08751 | 35062 ft | 437 kts | 310° |
| 2026-05-06 14:49 | 54.91625 | 8.04993 | 35273 ft | 437 kts | 310° |
| 2026-05-06 14:49 | 54.93754 | 8.01236 | 35473 ft | 437 kts | 310° |
| 2026-05-06 14:49 | 54.95888 | 7.97461 | 35675 ft | 437 kts | 310° |
| 2026-05-06 14:49 | 54.98017 | 7.93691 | 35877 ft | 437 kts | 310° |
| 2026-05-06 14:50 | 55.00152 | 7.89905 | 35933 ft | 440 kts | 310° |
| 2026-05-06 14:50 | 55.04447 | 7.82266 | 35942 ft | 441 kts | 310° |
| 2026-05-06 14:51 | 55.08716 | 7.74657 | 35936 ft | 436 kts | 310° |
| 2026-05-06 14:51 | 55.12935 | 7.67111 | 35955 ft | 433 kts | 310° |
| 2026-05-06 14:52 | 55.17129 | 7.59581 | 35953 ft | 432 kts | 310° |
| 2026-05-06 14:52 | 55.21312 | 7.52045 | 35957 ft | 431 kts | 309° |
| 2026-05-06 14:53 | 55.25484 | 7.44505 | 35965 ft | 431 kts | 309° |
| 2026-05-06 14:53 | 55.29657 | 7.36939 | 35970 ft | 432 kts | 309° |
| 2026-05-06 14:54 | 55.33840 | 7.29333 | 35971 ft | 433 kts | 309° |
| 2026-05-06 14:54 | 55.38025 | 7.21696 | 35978 ft | 434 kts | 309° |
| 2026-05-06 14:55 | 55.42216 | 7.14025 | 35982 ft | 435 kts | 309° |
| 2026-05-06 14:55 | 55.46410 | 7.06324 | 35985 ft | 436 kts | 309° |
| 2026-05-06 14:56 | 55.50611 | 6.98585 | 35987 ft | 436 kts | 309° |
| 2026-05-06 14:56 | 55.54803 | 6.90837 | 35979 ft | 436 kts | 309° |
| 2026-05-06 14:57 | 55.58987 | 6.83078 | 35978 ft | 435 kts | 309° |
| 2026-05-06 14:57 | 55.63129 | 6.75372 | 35990 ft | 434 kts | 309° |
| 2026-05-06 14:58 | 55.67280 | 6.67624 | 35994 ft | 433 kts | 309° |
| 2026-05-06 14:58 | 55.71413 | 6.59884 | 35996 ft | 431 kts | 309° |
| 2026-05-06 14:59 | 55.75529 | 6.52149 | 35998 ft | 430 kts | 309° |
| 2026-05-06 14:59 | 55.79626 | 6.44425 | 36002 ft | 429 kts | 308° |
| 2026-05-06 15:00 | 55.83708 | 6.36704 | 36004 ft | 428 kts | 308° |
| 2026-05-06 15:00 | 55.87778 | 6.28979 | 36010 ft | 427 kts | 308° |
| 2026-05-06 15:01 | 55.91835 | 6.21255 | 36010 ft | 427 kts | 308° |
| 2026-05-06 15:01 | 55.95890 | 6.13508 | 36012 ft | 427 kts | 308° |
| 2026-05-06 15:02 | 55.99938 | 6.05749 | 36013 ft | 427 kts | 308° |
| 2026-05-06 15:02 | 56.03982 | 5.97972 | 36018 ft | 427 kts | 308° |
| 2026-05-06 15:03 | 56.08026 | 5.90170 | 36022 ft | 427 kts | 308° |
| 2026-05-06 15:03 | 56.12065 | 5.82352 | 36021 ft | 427 kts | 308° |
| 2026-05-06 15:04 | 56.16098 | 5.74519 | 36022 ft | 428 kts | 308° |
| 2026-05-06 15:04 | 56.20134 | 5.66655 | 36024 ft | 428 kts | 307° |
| 2026-05-06 15:05 | 56.24161 | 5.58781 | 36030 ft | 428 kts | 307° |
| 2026-05-06 15:05 | 56.28153 | 5.50950 | 36033 ft | 428 kts | 307° |
| 2026-05-06 15:06 | 56.32168 | 5.43046 | 36029 ft | 427 kts | 307° |
| 2026-05-06 15:06 | 56.36175 | 5.35134 | 36035 ft | 427 kts | 307° |
| 2026-05-06 15:07 | 56.40170 | 5.27217 | 36035 ft | 426 kts | 307° |
| 2026-05-06 15:07 | 56.44153 | 5.19298 | 36036 ft | 425 kts | 307° |
| 2026-05-06 15:08 | 56.48124 | 5.11374 | 36039 ft | 425 kts | 307° |
| 2026-05-06 15:08 | 56.52084 | 5.03450 | 36040 ft | 424 kts | 307° |
| 2026-05-06 15:09 | 56.56046 | 4.95531 | 36041 ft | 424 kts | 307° |
| 2026-05-06 15:09 | 56.60032 | 4.87667 | 36043 ft | 423 kts | 307° |
| 2026-05-06 15:10 | 56.64019 | 4.79792 | 36045 ft | 423 kts | 307° |
| 2026-05-06 15:10 | 56.67990 | 4.71908 | 36044 ft | 423 kts | 307° |
| 2026-05-06 15:11 | 56.71956 | 4.63997 | 36052 ft | 423 kts | 307° |
| 2026-05-06 15:11 | 56.75916 | 4.56068 | 36052 ft | 423 kts | 307° |
| 2026-05-06 15:12 | 56.79870 | 4.48123 | 36051 ft | 423 kts | 307° |
| 2026-05-06 15:12 | 56.83821 | 4.40157 | 36054 ft | 424 kts | 307° |
| 2026-05-06 15:13 | 56.87775 | 4.32160 | 36054 ft | 424 kts | 307° |
| 2026-05-06 15:13 | 56.91722 | 4.24149 | 36056 ft | 424 kts | 307° |
| 2026-05-06 15:14 | 56.95665 | 4.16118 | 36059 ft | 424 kts | 307° |
| 2026-05-06 15:14 | 56.99607 | 4.08062 | 36063 ft | 424 kts | 307° |
| 2026-05-06 15:15 | 57.03542 | 3.99995 | 36062 ft | 424 kts | 307° |
| 2026-05-06 15:15 | 57.07472 | 3.91907 | 36062 ft | 424 kts | 307° |
| 2026-05-06 15:16 | 57.11366 | 3.83867 | 36064 ft | 423 kts | 307° |
| 2026-05-06 15:16 | 57.15303 | 3.75711 | 36067 ft | 423 kts | 307° |
| 2026-05-06 15:17 | 57.19180 | 3.67649 | 36072 ft | 423 kts | 307° |
| 2026-05-06 15:17 | 57.23073 | 3.59527 | 36064 ft | 422 kts | 307° |
| 2026-05-06 15:18 | 57.26958 | 3.51395 | 36070 ft | 422 kts | 307° |
| 2026-05-06 15:18 | 57.30834 | 3.43252 | 36070 ft | 421 kts | 307° |
| 2026-05-06 15:19 | 57.34699 | 3.35105 | 36067 ft | 421 kts | 307° |
| 2026-05-06 15:19 | 57.38554 | 3.26951 | 36075 ft | 420 kts | 307° |
| 2026-05-06 15:20 | 57.42401 | 3.18784 | 36071 ft | 420 kts | 307° |
| 2026-05-06 15:20 | 57.46240 | 3.10608 | 36072 ft | 420 kts | 306° |
| 2026-05-06 15:21 | 57.50066 | 3.02430 | 36076 ft | 419 kts | 306° |
| 2026-05-06 15:21 | 57.53888 | 2.94232 | 36074 ft | 419 kts | 306° |
| 2026-05-06 15:22 | 57.57699 | 2.86028 | 36075 ft | 419 kts | 306° |
| 2026-05-06 15:22 | 57.61507 | 2.77804 | 36074 ft | 418 kts | 306° |
| 2026-05-06 15:23 | 57.65301 | 2.69578 | 36079 ft | 418 kts | 306° |
| 2026-05-06 15:23 | 57.69089 | 2.61339 | 36076 ft | 418 kts | 306° |
| 2026-05-06 15:24 | 57.72869 | 2.53090 | 36078 ft | 417 kts | 306° |
| 2026-05-06 15:24 | 57.76641 | 2.44827 | 36075 ft | 417 kts | 306° |
| 2026-05-06 15:25 | 57.80404 | 2.36556 | 36080 ft | 417 kts | 306° |
| 2026-05-06 15:25 | 57.84157 | 2.28277 | 36076 ft | 416 kts | 306° |
| 2026-05-06 15:26 | 57.87291 | 2.21341 | 36073 ft | 416 kts | 306° |
| 2026-05-06 15:26 | 57.91021 | 2.13058 | 36074 ft | 415 kts | 306° |
| 2026-05-06 15:27 | 57.94741 | 2.04771 | 36077 ft | 414 kts | 306° |
| 2026-05-06 15:27 | 57.98425 | 1.96534 | 36075 ft | 413 kts | 306° |
| 2026-05-06 15:28 | 58.02120 | 1.88243 | 36079 ft | 412 kts | 306° |
| 2026-05-06 15:28 | 58.05802 | 1.79953 | 36077 ft | 411 kts | 306° |
| 2026-05-06 15:29 | 58.09467 | 1.71672 | 36075 ft | 411 kts | 306° |
| 2026-05-06 15:29 | 58.13124 | 1.63380 | 36077 ft | 410 kts | 306° |
| 2026-05-06 15:30 | 58.16768 | 1.55087 | 36075 ft | 409 kts | 305° |
| 2026-05-06 15:30 | 58.20400 | 1.46793 | 36069 ft | 409 kts | 305° |
| 2026-05-06 15:31 | 58.24020 | 1.38497 | 36075 ft | 408 kts | 305° |
| 2026-05-06 15:31 | 58.27633 | 1.30188 | 36069 ft | 407 kts | 305° |
| 2026-05-06 15:32 | 58.33032 | 1.17715 | 36075 ft | 407 kts | 305° |
| 2026-05-06 15:32 | 58.36620 | 1.09390 | 36073 ft | 407 kts | 305° |
| 2026-05-06 15:33 | 58.40199 | 1.01056 | 36072 ft | 406 kts | 305° |
| 2026-05-06 15:33 | 58.43773 | 0.92706 | 36077 ft | 406 kts | 305° |
| 2026-05-06 15:34 | 58.47339 | 0.84343 | 36073 ft | 406 kts | 305° |
| 2026-05-06 15:34 | 58.50898 | 0.75968 | 36070 ft | 406 kts | 305° |
| 2026-05-06 15:35 | 58.54450 | 0.67579 | 36068 ft | 405 kts | 305° |
| 2026-05-06 15:35 | 58.57994 | 0.59178 | 36065 ft | 405 kts | 305° |
| 2026-05-06 15:36 | 58.61532 | 0.50763 | 36067 ft | 405 kts | 305° |
| 2026-05-06 15:36 | 58.65066 | 0.42326 | 36063 ft | 405 kts | 305° |
| 2026-05-06 15:37 | 58.68592 | 0.33877 | 36064 ft | 405 kts | 304° |
| 2026-05-06 15:37 | 58.72117 | 0.25403 | 36062 ft | 405 kts | 304° |
| 2026-05-06 15:38 | 58.75631 | 0.16923 | 36064 ft | 405 kts | 304° |
| 2026-05-06 15:38 | 58.79144 | 0.08415 | 36063 ft | 405 kts | 304° |
| 2026-05-06 15:39 | 58.82649 | -0.00104 | 36061 ft | 406 kts | 304° |
| 2026-05-06 15:39 | 58.86150 | -0.08646 | 36060 ft | 406 kts | 304° |
| 2026-05-06 15:40 | 58.89649 | -0.17211 | 36062 ft | 406 kts | 304° |
| 2026-05-06 15:40 | 58.93140 | -0.25790 | 36057 ft | 406 kts | 304° |
| 2026-05-06 15:41 | 58.96629 | -0.34395 | 36058 ft | 406 kts | 304° |
| 2026-05-06 15:41 | 59.00111 | -0.43015 | 36058 ft | 406 kts | 304° |
| 2026-05-06 15:42 | 59.03590 | -0.51656 | 36057 ft | 406 kts | 304° |
| 2026-05-06 15:42 | 59.07059 | -0.60309 | 36051 ft | 406 kts | 304° |
| 2026-05-06 15:43 | 59.10524 | -0.68980 | 36054 ft | 406 kts | 304° |
| 2026-05-06 15:43 | 59.13983 | -0.77668 | 36052 ft | 406 kts | 304° |
| 2026-05-06 15:44 | 59.17437 | -0.86377 | 36051 ft | 406 kts | 304° |
| 2026-05-06 15:44 | 59.20884 | -0.95102 | 36049 ft | 406 kts | 304° |
| 2026-05-06 15:45 | 59.24324 | -1.03840 | 36050 ft | 406 kts | 304° |
| 2026-05-06 15:45 | 59.27768 | -1.12620 | 36050 ft | 406 kts | 304° |
| 2026-05-06 15:46 | 59.31200 | -1.21406 | 36051 ft | 407 kts | 304° |
| 2026-05-06 15:46 | 59.34633 | -1.30224 | 36050 ft | 407 kts | 304° |
| 2026-05-06 15:47 | 59.38059 | -1.39057 | 36053 ft | 407 kts | 304° |
| 2026-05-06 15:47 | 59.41484 | -1.47922 | 36051 ft | 408 kts | 303° |
| 2026-05-06 15:48 | 59.44904 | -1.56808 | 36046 ft | 408 kts | 303° |
| 2026-05-06 15:48 | 59.48321 | -1.65718 | 36038 ft | 408 kts | 303° |
| 2026-05-06 15:49 | 59.51736 | -1.74657 | 36049 ft | 408 kts | 303° |
| 2026-05-06 15:49 | 59.55146 | -1.83620 | 36050 ft | 409 kts | 303° |
| 2026-05-06 15:50 | 59.58549 | -1.92596 | 36049 ft | 409 kts | 303° |
| 2026-05-06 15:50 | 59.61929 | -2.01546 | 36047 ft | 409 kts | 303° |
| 2026-05-06 15:51 | 59.65326 | -2.10578 | 36044 ft | 409 kts | 303° |
| 2026-05-06 15:51 | 59.68717 | -2.19625 | 36045 ft | 410 kts | 303° |
| 2026-05-06 15:52 | 59.72107 | -2.28707 | 36041 ft | 410 kts | 303° |
| 2026-05-06 15:52 | 59.75490 | -2.37805 | 36040 ft | 410 kts | 303° |
| 2026-05-06 15:53 | 59.78868 | -2.46925 | 36043 ft | 410 kts | 303° |
| 2026-05-06 15:53 | 59.82244 | -2.56074 | 36041 ft | 410 kts | 303° |
| 2026-05-06 15:54 | 59.85612 | -2.65239 | 36039 ft | 410 kts | 303° |
| 2026-05-06 15:54 | 59.88976 | -2.74426 | 36040 ft | 410 kts | 303° |
| 2026-05-06 15:55 | 59.92331 | -2.83626 | 36039 ft | 410 kts | 303° |
| 2026-05-06 15:55 | 59.95679 | -2.92845 | 36036 ft | 410 kts | 303° |
| 2026-05-06 15:56 | 59.99019 | -3.02076 | 36034 ft | 410 kts | 303° |
| 2026-05-06 15:56 | 60.02353 | -3.11327 | 36039 ft | 410 kts | 303° |
| 2026-05-06 15:57 | 60.05677 | -3.20587 | 36036 ft | 410 kts | 303° |
| 2026-05-06 15:57 | 60.08992 | -3.29860 | 36037 ft | 409 kts | 303° |
| 2026-05-06 15:58 | 60.12301 | -3.39151 | 36035 ft | 409 kts | 303° |